createdAt,value
2023-04-22T00:00:23.894Z,15.60
2023-04-22T00:03:10.201Z,15.60
2023-04-22T00:05:56.060Z,15.60
2023-04-22T00:08:41.358Z,15.60
2023-04-22T00:11:27.121Z,15.50
2023-04-22T00:14:12.945Z,15.50
2023-04-22T00:16:58.397Z,15.40
2023-04-22T00:19:43.970Z,15.30
2023-04-22T00:22:29.719Z,18.80
2023-04-22T00:25:15.914Z,15.30
2023-04-22T00:28:01.299Z,15.20
2023-04-22T00:30:47.015Z,15.20
2023-04-22T00:33:32.709Z,15.20
2023-04-22T00:36:18.316Z,15.20
2023-04-22T00:39:04.042Z,15.10
2023-04-22T00:41:50.214Z,15.00
2023-04-22T00:44:36.337Z,14.90
2023-04-22T00:47:24.466Z,14.90
2023-04-22T00:50:10.106Z,14.90
2023-04-22T00:52:55.543Z,14.90
2023-04-22T00:55:41.209Z,14.80
2023-04-22T00:58:28.132Z,14.80
2023-04-22T01:01:14.318Z,14.80
2023-04-22T01:04:01.002Z,14.70
2023-04-22T01:06:47.041Z,14.80
2023-04-22T01:09:32.861Z,14.70
2023-04-22T01:12:18.317Z,14.70
2023-04-22T01:15:05.035Z,14.60
2023-04-22T01:17:51.018Z,14.60
2023-04-22T01:20:36.910Z,14.60
2023-04-22T01:23:22.884Z,14.60
2023-04-22T01:26:08.152Z,14.50
2023-04-22T01:28:54.009Z,14.50
2023-04-22T01:31:39.476Z,14.40
2023-04-22T01:34:25.035Z,14.30
2023-04-22T01:37:10.503Z,14.40
2023-04-22T01:39:57.107Z,14.30
2023-04-22T01:42:42.762Z,14.30
2023-04-22T01:45:28.869Z,14.30
2023-04-22T01:48:14.550Z,14.30
2023-04-22T01:51:00.501Z,14.20
2023-04-22T01:53:45.829Z,14.10
2023-04-22T01:56:31.275Z,14.10
2023-04-22T01:59:16.807Z,14.10
2023-04-22T02:02:02.491Z,13.90
2023-04-22T02:04:48.203Z,13.80
2023-04-22T02:07:33.919Z,13.80
2023-04-22T02:10:19.652Z,13.80
2023-04-22T02:13:05.021Z,13.80
2023-04-22T02:15:50.984Z,13.80
2023-04-22T02:18:36.624Z,13.70
2023-04-22T02:21:21.981Z,13.70
2023-04-22T02:24:07.883Z,13.70
2023-04-22T02:26:53.327Z,13.70
2023-04-22T02:29:39.504Z,13.70
2023-04-22T02:32:26.253Z,13.70
2023-04-22T02:35:11.785Z,13.70
2023-04-22T02:37:57.626Z,13.70
2023-04-22T02:40:45.471Z,13.80
2023-04-22T02:43:30.903Z,13.70
2023-04-22T02:46:16.660Z,13.70
2023-04-22T02:49:03.769Z,13.60
2023-04-22T02:51:49.226Z,13.60
2023-04-22T02:54:34.914Z,13.60
2023-04-22T02:57:21.098Z,13.50
2023-04-22T03:00:08.046Z,13.60
2023-04-22T03:02:54.040Z,13.60
2023-04-22T03:05:43.990Z,13.60
2023-04-22T03:08:29.563Z,13.50
2023-04-22T03:11:15.279Z,13.60
2023-04-22T03:14:00.953Z,13.60
2023-04-22T03:16:46.720Z,13.50
2023-04-22T03:19:33.384Z,13.50
2023-04-22T03:22:18.987Z,13.50
2023-04-22T03:25:04.915Z,13.50
2023-04-22T03:27:50.693Z,13.40
2023-04-22T03:30:36.922Z,13.40
2023-04-22T03:33:22.784Z,13.40
2023-04-22T03:36:19.628Z,13.40
2023-04-22T03:39:05.299Z,13.40
2023-04-22T03:41:52.546Z,13.40
2023-04-22T03:44:38.228Z,13.50
2023-04-22T03:47:23.998Z,13.50
2023-04-22T03:50:15.044Z,13.50
2023-04-22T03:53:01.210Z,13.50
2023-04-22T03:55:46.962Z,13.50
2023-04-22T03:58:33.787Z,13.40
2023-04-22T04:01:23.892Z,13.50
2023-04-22T04:04:12.385Z,13.40
2023-04-22T04:07:08.460Z,13.40
2023-04-22T04:09:53.709Z,13.50
2023-04-22T04:12:39.499Z,13.60
2023-04-22T04:15:25.553Z,13.70
2023-04-22T04:18:12.007Z,13.90
2023-04-22T04:20:57.923Z,14.10
2023-04-22T04:23:47.621Z,14.10
2023-04-22T04:26:36.077Z,14.30
2023-04-22T04:29:28.176Z,14.30
2023-04-22T04:32:30.974Z,14.40
2023-04-22T04:35:21.532Z,14.50
2023-04-22T04:38:14.195Z,14.60
2023-04-22T04:41:02.906Z,14.60
2023-04-22T04:43:50.943Z,14.70
2023-04-22T04:46:43.677Z,14.70
2023-04-22T04:49:30.915Z,14.70
2023-04-22T04:52:18.956Z,14.70
2023-04-22T04:55:04.682Z,14.80
2023-04-22T04:57:53.161Z,14.80
2023-04-22T05:00:38.946Z,14.80
2023-04-22T05:03:24.734Z,14.80
2023-04-22T05:06:10.695Z,14.60
2023-04-22T05:08:58.989Z,14.50
2023-04-22T05:11:44.627Z,14.50
2023-04-22T05:14:35.430Z,14.40
2023-04-22T05:17:21.449Z,14.50
2023-04-22T05:20:07.695Z,14.60
2023-04-22T05:22:53.945Z,14.60
2023-04-22T05:25:39.786Z,14.70
2023-04-22T05:28:28.985Z,14.80
2023-04-22T05:31:16.442Z,14.70
2023-04-22T05:34:02.215Z,14.70
2023-04-22T05:36:48.062Z,14.60
2023-04-22T05:39:33.700Z,14.60
2023-04-22T05:42:23.085Z,14.60
2023-04-22T05:45:09.170Z,14.60
2023-04-22T05:47:55.592Z,14.60
2023-04-22T05:50:42.594Z,14.60
2023-04-22T05:53:28.272Z,14.60
2023-04-22T05:56:14.082Z,14.60
2023-04-22T05:58:59.530Z,14.60
2023-04-22T06:01:45.949Z,14.70
2023-04-22T06:04:37.448Z,14.70
2023-04-22T06:07:24.303Z,14.70
2023-04-22T06:10:10.373Z,15.50
2023-04-22T06:12:56.170Z,14.80
2023-04-22T06:15:42.189Z,14.80
2023-04-22T06:18:29.149Z,14.80
2023-04-22T06:21:14.594Z,14.90
2023-04-22T06:24:01.383Z,14.90
2023-04-22T06:26:47.631Z,14.90
2023-04-22T06:29:33.677Z,14.90
2023-04-22T06:32:19.304Z,14.90
2023-04-22T06:35:04.992Z,15.00
2023-04-22T06:37:50.401Z,14.90
2023-04-22T06:40:36.069Z,15.00
2023-04-22T06:43:31.316Z,15.00
2023-04-22T06:46:46.575Z,15.00
2023-04-22T06:50:00.280Z,11.20
2023-04-22T06:52:54.533Z,15.10
2023-04-22T06:55:40.237Z,15.20
2023-04-22T06:58:25.688Z,15.30
2023-04-22T07:01:11.825Z,15.40
2023-04-22T07:03:59.529Z,15.50
2023-04-22T07:06:45.222Z,15.60
2023-04-22T07:09:31.911Z,14.00
2023-04-22T07:12:17.723Z,15.60
2023-04-22T07:15:03.545Z,15.60
2023-04-22T07:17:48.998Z,15.70
2023-04-22T07:20:34.485Z,15.80
2023-04-22T07:23:20.157Z,15.90
2023-04-22T07:26:05.821Z,16.00
2023-04-22T07:28:51.436Z,16.00
2023-04-22T07:31:37.066Z,16.10
2023-04-22T07:34:22.627Z,16.10
2023-04-22T07:37:09.576Z,16.30
2023-04-22T07:39:54.784Z,16.40
2023-04-22T07:42:40.513Z,16.50
2023-04-22T07:45:26.015Z,16.70
2023-04-22T07:48:11.590Z,16.70
2023-04-22T07:50:57.319Z,16.80
2023-04-22T07:53:42.911Z,16.90
2023-04-22T07:56:28.429Z,17.00
2023-04-22T07:59:14.121Z,17.10
2023-04-22T08:01:59.752Z,17.20
2023-04-22T08:04:45.877Z,17.20
2023-04-22T08:07:33.345Z,17.30
2023-04-22T08:10:19.007Z,17.40
2023-04-22T08:13:04.667Z,17.40
2023-04-22T08:15:50.174Z,17.50
2023-04-22T08:18:35.924Z,17.50
2023-04-22T08:21:21.946Z,17.60
2023-04-22T08:24:07.545Z,17.60
2023-04-22T08:26:53.306Z,17.70
2023-04-22T08:29:39.040Z,17.70
2023-04-22T08:32:26.536Z,17.80
2023-04-22T08:35:12.558Z,17.80
2023-04-22T08:37:57.902Z,17.90
2023-04-22T08:40:43.597Z,17.90
2023-04-22T08:43:29.325Z,17.90
2023-04-22T08:46:15.823Z,17.90
2023-04-22T08:49:04.179Z,17.90
2023-04-22T08:51:50.050Z,18.00
2023-04-22T08:54:37.466Z,18.00
2023-04-22T08:57:23.740Z,18.00
2023-04-22T09:00:10.015Z,18.10
2023-04-22T09:02:57.373Z,18.10
2023-04-22T09:05:43.116Z,18.20
2023-04-22T09:08:29.056Z,18.20
2023-04-22T09:11:14.412Z,18.20
2023-04-22T09:14:00.084Z,18.20
2023-04-22T09:16:48.771Z,18.30
2023-04-22T09:19:34.066Z,18.30
2023-04-22T09:22:19.794Z,18.30
2023-04-22T09:25:05.654Z,18.30
2023-04-22T09:27:51.676Z,18.40
2023-04-22T09:30:37.884Z,18.40
2023-04-22T09:33:25.508Z,18.40
2023-04-22T09:36:11.378Z,18.50
2023-04-22T09:38:59.488Z,18.50
2023-04-22T09:41:45.072Z,18.60
2023-04-22T09:44:30.621Z,18.60
2023-04-22T09:47:16.168Z,18.60
2023-04-22T09:50:03.836Z,17.00
2023-04-22T09:53:16.165Z,18.70
2023-04-22T09:56:04.440Z,18.70
2023-04-22T09:58:52.219Z,18.70
2023-04-22T10:01:39.660Z,18.80
2023-04-22T10:04:25.930Z,18.80
2023-04-22T10:07:14.321Z,18.90
2023-04-22T10:10:00.183Z,19.00
2023-04-22T10:12:47.030Z,19.00
2023-04-22T10:15:40.330Z,19.10
2023-04-22T10:18:26.432Z,19.10
2023-04-22T10:21:12.741Z,19.20
2023-04-22T10:23:58.908Z,19.20
2023-04-22T10:26:57.264Z,19.20
2023-04-22T10:29:43.552Z,19.30
2023-04-22T10:32:30.392Z,19.30
2023-04-22T10:35:16.452Z,19.40
2023-04-22T10:38:01.836Z,19.40
2023-04-22T10:41:00.343Z,19.40
2023-04-22T10:43:47.123Z,19.50
2023-04-22T10:46:40.155Z,19.50
2023-04-22T10:49:26.411Z,19.50
2023-04-22T10:52:27.083Z,19.60
2023-04-22T10:55:12.568Z,19.70
2023-04-22T10:57:59.414Z,19.70
2023-04-22T11:00:53.319Z,19.80
2023-04-22T11:03:40.043Z,19.80
2023-04-22T11:06:27.918Z,19.80
2023-04-22T11:09:13.399Z,19.90
2023-04-22T11:12:17.850Z,19.90
2023-04-22T11:15:10.915Z,19.90
2023-04-22T11:17:56.558Z,20.00
2023-04-22T11:20:42.145Z,20.10
2023-04-22T11:23:28.191Z,20.10
2023-04-22T11:26:13.583Z,20.20
2023-04-22T11:29:00.548Z,20.20
2023-04-22T11:31:49.126Z,20.30
2023-04-22T11:34:34.512Z,20.30
2023-04-22T11:37:20.096Z,20.40
2023-04-22T11:40:17.316Z,20.50
2023-04-22T11:43:11.905Z,20.50
2023-04-22T11:45:57.664Z,20.60
2023-04-22T11:48:43.235Z,20.60
2023-04-22T11:51:28.930Z,20.70
2023-04-22T11:54:14.476Z,20.70
2023-04-22T11:57:04.257Z,20.80
2023-04-22T11:59:59.426Z,20.90
2023-04-22T12:02:55.152Z,19.40
2023-04-22T12:05:45.057Z,21.00
2023-04-22T12:08:36.657Z,21.00
2023-04-22T12:11:22.661Z,21.20
2023-04-22T12:14:08.173Z,21.10
2023-04-22T12:16:53.887Z,21.10
2023-04-22T12:19:39.896Z,21.10
2023-04-22T12:22:26.330Z,21.10
2023-04-22T12:25:11.775Z,21.10
2023-04-22T12:27:57.772Z,21.20
2023-04-22T12:30:43.220Z,21.20
2023-04-22T12:33:29.032Z,21.30
2023-04-22T12:36:14.395Z,21.40
2023-04-22T12:39:00.053Z,21.40
2023-04-22T12:41:46.044Z,21.50
2023-04-22T12:44:32.257Z,21.60
2023-04-22T12:47:18.338Z,21.70
2023-04-22T12:50:06.502Z,21.70
2023-04-22T12:52:52.390Z,21.90
2023-04-22T12:55:38.191Z,21.90
2023-04-22T12:58:24.551Z,19.60
2023-04-22T13:01:10.172Z,21.90
2023-04-22T13:03:55.866Z,21.90
2023-04-22T13:06:44.107Z,21.80
2023-04-22T13:09:29.750Z,21.80
2023-04-22T13:12:15.397Z,21.70
2023-04-22T13:15:04.419Z,21.70
2023-04-22T13:17:51.480Z,21.60
2023-04-22T13:20:37.314Z,21.50
2023-04-22T13:23:23.580Z,21.50
2023-04-22T13:26:08.997Z,21.50
2023-04-22T13:28:54.613Z,21.50
2023-04-22T13:31:44.640Z,21.50
2023-04-22T13:34:30.116Z,21.70
2023-04-22T13:37:16.431Z,21.80
2023-04-22T13:40:02.506Z,22.00
2023-04-22T13:42:48.355Z,22.20
2023-04-22T13:45:33.840Z,22.30
2023-04-22T13:48:19.435Z,22.40
2023-04-22T13:51:05.241Z,22.40
2023-04-22T13:53:50.998Z,22.30
2023-04-22T13:56:36.502Z,22.20
2023-04-22T13:59:22.355Z,22.10
2023-04-22T14:02:08.076Z,22.00
2023-04-22T14:04:53.517Z,21.90
2023-04-22T14:07:39.245Z,21.80
2023-04-22T14:10:26.637Z,21.90
2023-04-22T14:13:13.534Z,22.10
2023-04-22T14:15:59.572Z,22.20
2023-04-22T14:18:45.794Z,22.40
2023-04-22T14:21:31.375Z,22.40
2023-04-22T14:24:16.797Z,22.30
2023-04-22T14:27:02.593Z,22.20
2023-04-22T14:29:52.266Z,22.10
2023-04-22T14:32:37.975Z,22.00
2023-04-22T14:35:24.099Z,21.90
2023-04-22T14:38:10.666Z,21.80
2023-04-22T14:40:56.120Z,21.70
2023-04-22T14:43:41.596Z,21.60
2023-04-22T14:46:27.442Z,21.60
2023-04-22T14:49:12.696Z,21.50
2023-04-22T14:52:00.868Z,21.40
2023-04-22T14:54:47.701Z,21.40
2023-04-22T14:57:33.360Z,21.40
2023-04-22T15:00:19.218Z,21.40
2023-04-22T15:03:05.034Z,21.30
2023-04-22T15:05:52.423Z,21.30
2023-04-22T15:08:37.988Z,21.40
2023-04-22T15:11:23.286Z,21.40
2023-04-22T15:14:09.068Z,21.40
2023-04-22T15:16:54.399Z,21.40
2023-04-22T15:19:40.275Z,21.50
2023-04-22T15:22:26.445Z,21.50
2023-04-22T15:25:11.851Z,21.50
2023-04-22T15:27:57.487Z,19.50
2023-04-22T15:30:43.864Z,21.50
2023-04-22T15:33:29.564Z,21.50
2023-04-22T15:36:18.247Z,21.40
2023-04-22T15:39:05.436Z,21.40
2023-04-22T15:41:50.934Z,21.40
2023-04-22T15:44:36.705Z,21.40
2023-04-22T15:47:22.182Z,21.40
2023-04-22T15:50:09.412Z,21.40
2023-04-22T15:52:55.669Z,21.40
2023-04-22T15:55:41.328Z,21.40
2023-04-22T15:58:28.935Z,21.30
2023-04-22T16:01:19.202Z,21.30
2023-04-22T16:04:05.655Z,21.30
2023-04-22T16:06:51.730Z,21.20
2023-04-22T16:09:37.391Z,21.20
2023-04-22T16:12:22.899Z,21.20
2023-04-22T16:15:09.654Z,21.10
2023-04-22T16:17:55.425Z,21.10
2023-04-22T16:20:40.947Z,21.00
2023-04-22T16:23:26.384Z,21.00
2023-04-22T16:26:11.864Z,21.00
2023-04-22T16:28:57.821Z,21.00
2023-04-22T16:31:43.782Z,21.00
2023-04-22T16:34:29.373Z,21.00
2023-04-22T16:37:15.331Z,20.90
2023-04-22T16:40:01.146Z,20.90
2023-04-22T16:42:46.787Z,20.80
2023-04-22T16:45:32.544Z,20.80
2023-04-22T16:48:18.031Z,20.80
2023-04-22T16:51:04.382Z,20.70
2023-04-22T16:53:50.046Z,20.80
2023-04-22T16:56:35.887Z,20.80
2023-04-22T16:59:21.400Z,20.70
2023-04-22T17:02:07.069Z,20.70
2023-04-22T17:04:52.749Z,20.70
2023-04-22T17:07:38.507Z,20.80
2023-04-22T17:10:24.149Z,20.70
2023-04-22T17:13:09.840Z,20.60
2023-04-22T17:15:55.526Z,20.50
2023-04-22T17:18:41.128Z,20.40
2023-04-22T17:21:28.047Z,20.40
2023-04-22T17:24:13.391Z,20.50
2023-04-22T17:26:59.194Z,20.50
2023-04-22T17:29:44.850Z,20.50
2023-04-22T17:32:30.555Z,20.50
2023-04-22T17:35:16.462Z,20.40
2023-04-22T17:38:01.949Z,20.40
2023-04-22T17:40:48.031Z,20.40
2023-04-22T17:43:33.674Z,20.40
2023-04-22T17:46:19.275Z,20.40
2023-04-22T17:49:04.930Z,20.30
2023-04-22T17:51:50.552Z,20.30
2023-04-22T17:54:36.212Z,20.30
2023-04-22T17:57:21.996Z,20.20
2023-04-22T18:00:08.442Z,20.20
2023-04-22T18:02:54.269Z,20.30
2023-04-22T18:05:43.261Z,20.30
2023-04-22T18:08:28.470Z,20.30
2023-04-22T18:11:14.389Z,20.30
2023-04-22T18:13:59.835Z,20.30
2023-04-22T18:16:45.355Z,20.30
2023-04-22T18:19:31.059Z,20.30
2023-04-22T18:22:17.479Z,20.20
2023-04-22T18:25:02.924Z,20.20
2023-04-22T18:27:50.519Z,20.20
2023-04-22T18:30:35.798Z,20.10
2023-04-22T18:33:21.481Z,20.00
2023-04-22T18:36:07.268Z,20.10
2023-04-22T18:38:53.397Z,20.10
2023-04-22T18:41:40.061Z,20.10
2023-04-22T18:44:25.668Z,20.00
2023-04-22T18:47:11.181Z,20.00
2023-04-22T18:49:57.528Z,20.00
2023-04-22T18:52:42.933Z,20.00
2023-04-22T18:55:28.631Z,20.00
2023-04-22T18:58:14.657Z,19.90
2023-04-22T19:01:00.053Z,19.80
2023-04-22T19:03:46.807Z,19.70
2023-04-22T19:06:32.290Z,19.80
2023-04-22T19:09:18.054Z,19.70
2023-04-22T19:12:03.697Z,21.00
2023-04-22T19:14:49.119Z,19.70
2023-04-22T19:17:35.009Z,19.70
2023-04-22T19:20:20.856Z,19.60
2023-04-22T19:23:06.382Z,19.60
2023-04-22T19:25:51.970Z,19.70
2023-04-22T19:28:37.689Z,19.70
2023-04-22T19:31:23.462Z,19.60
2023-04-22T19:34:09.007Z,19.40
2023-04-22T19:36:54.734Z,19.50
2023-04-22T19:39:40.254Z,19.40
2023-04-22T19:42:25.824Z,19.40
2023-04-22T19:45:11.659Z,19.30
2023-04-22T19:47:57.482Z,19.10
2023-04-22T19:50:43.870Z,19.00
2023-04-22T19:53:31.135Z,18.90
2023-04-22T19:56:16.955Z,18.80
2023-04-22T19:59:03.261Z,18.70
2023-04-22T20:01:48.886Z,18.60
2023-04-22T20:04:34.896Z,18.60
2023-04-22T20:07:21.104Z,18.50
2023-04-22T20:10:06.970Z,18.40
2023-04-22T20:12:54.136Z,18.30
2023-04-22T20:15:39.879Z,18.20
2023-04-22T20:18:27.006Z,18.10
2023-04-22T20:21:13.599Z,18.10
2023-04-22T20:23:59.549Z,18.00
2023-04-22T20:26:46.416Z,17.20
2023-04-22T20:29:32.492Z,17.90
2023-04-22T20:32:17.828Z,17.80
2023-04-22T20:35:03.955Z,17.80
2023-04-22T20:37:50.887Z,17.70
2023-04-22T20:40:36.315Z,17.80
2023-04-22T20:43:21.883Z,17.80
2023-04-22T20:46:07.931Z,17.70
2023-04-22T20:48:53.233Z,17.70
2023-04-22T20:51:38.848Z,17.80
2023-04-22T20:54:28.916Z,17.60
2023-04-22T20:57:15.097Z,17.60
2023-04-22T21:00:01.307Z,17.60
2023-04-22T21:02:47.418Z,17.60
2023-04-22T21:05:33.376Z,17.60
2023-04-22T21:08:23.432Z,17.50
2023-04-22T21:11:09.390Z,17.50
2023-04-22T21:13:55.020Z,17.50
2023-04-22T21:16:40.889Z,17.50
2023-04-22T21:19:28.208Z,17.50
2023-04-22T21:22:14.641Z,17.40
2023-04-22T21:25:00.928Z,17.40
2023-04-22T21:27:46.799Z,17.40
2023-04-22T21:30:32.360Z,17.40
2023-04-22T21:33:17.838Z,17.30
2023-04-22T21:36:03.595Z,17.40
2023-04-22T21:38:50.064Z,17.30
2023-04-22T21:41:35.899Z,17.30
2023-04-22T21:44:21.326Z,17.30
2023-04-22T21:47:07.072Z,17.30
2023-04-22T21:49:52.590Z,17.30
2023-04-22T21:52:38.860Z,17.30
2023-04-22T21:55:24.686Z,17.30
2023-04-22T21:58:10.437Z,17.20
2023-04-22T22:00:56.056Z,17.30
2023-04-22T22:03:41.911Z,17.20
2023-04-22T22:06:28.546Z,17.20
2023-04-22T22:09:14.246Z,17.20
2023-04-22T22:11:59.473Z,17.30
2023-04-22T22:14:45.051Z,17.30
2023-04-22T22:17:30.702Z,17.20
2023-04-22T22:20:22.381Z,17.20
2023-04-22T22:23:08.010Z,17.20
2023-04-22T22:25:53.801Z,17.20
2023-04-22T22:28:39.743Z,17.20
2023-04-22T22:31:25.547Z,17.20
2023-04-22T22:34:11.142Z,17.10
2023-04-22T22:36:56.751Z,17.10
2023-04-22T22:39:42.504Z,17.10
2023-04-22T22:42:27.860Z,17.10
2023-04-22T22:45:13.582Z,17.10
2023-04-22T22:47:59.138Z,17.10
2023-04-22T22:50:46.519Z,17.00
2023-04-22T22:53:34.259Z,16.90
2023-04-22T22:56:21.024Z,16.80
2023-04-22T22:59:06.620Z,16.70
2023-04-22T23:01:52.296Z,16.60
2023-04-22T23:04:39.407Z,16.60
2023-04-22T23:07:24.993Z,16.50
2023-04-22T23:10:10.815Z,16.40
2023-04-22T23:12:56.452Z,16.40
2023-04-22T23:15:42.092Z,16.40
2023-04-22T23:18:27.829Z,16.30
2023-04-22T23:21:13.139Z,16.20
2023-04-22T23:23:59.846Z,16.20
2023-04-22T23:26:45.943Z,16.20
2023-04-22T23:29:31.831Z,16.20
2023-04-22T23:32:19.389Z,16.20
2023-04-22T23:35:06.018Z,16.20
2023-04-22T23:37:52.007Z,16.20
2023-04-22T23:40:37.856Z,16.10
2023-04-22T23:43:23.483Z,16.10
2023-04-22T23:46:09.221Z,16.00
2023-04-22T23:48:54.993Z,15.90
2023-04-22T23:51:40.364Z,15.90
2023-04-22T23:54:25.992Z,15.90
2023-04-22T23:57:11.382Z,15.80
2023-04-22T23:59:56.921Z,15.80
